Terminal Aerodrome Forecast
Issued by NWS

Home | Current Version | Previous Version | Text Only | Print | Product List | Glossary On
Versions: 1 2 3 4 5 6 7 8 9 10 11 12 13 14 15 16 17
218
FTUS45 KFGZ 191454 AAA
TAFGCN
TAF AMD
KGCN 191454Z 1915/2012 VRB03KT P6SM SCT070 BKN090
      TEMPO 1915/1918 -TSRA BKN070CB
     FM191800 22012G18KT P6SM BKN090
     FM200100 21006KT P6SM FEW090 SCT200=

USA.gov is the U.S. government's official web portal to all federal, state and local government web resources and services.